Anderson Acres, Nevada
Current Conditions -  °F | °C
As of 9:35 AM on Thursday 23 Oct 2014 (Local Time) from KRTS Reporting Station
Clear Clear  
Wind Chill: 14°   Ceiling: Unl
Heat Index: 14°   Visibility: 10mi
Dew Point: -1°   Wind: 7mph
Humidity: 36%   Direction: 290°WNW
Pressure: 30.13"   Gusts: NA
Location:  39.7378°N, 119.889°W
Report Text: KRTS 231635Z AUTO 29006KT 10SM CLR 14/M01 A3013 RMK AO2
Loading
Personal Weather Stations






























Interactive Weather Map
Tropical Storm Tracking
New forecast layout! Learn more

10-Day Weather Forecast

Advertisements
Track Severe Weather on mobile